Time;durP1;ratioP1;P1;durP2;ratioP2;P2;SDS_P1;SDS_P2;PMS_P1;PMS_P2;Temp;Humidity;BMP_temperature;BMP_pressure;BME280_temperature;BME280_humidity;BME280_pressure;Samples;Min_cycle;Max_cycle;Signal;HPM_P1;HPM_P2
2023/11/02 00:00:34;;;;;;;3.15;1.00;;;12.50;99.90;;;;;;5074526;28;20017;-88
2023/11/02 00:03:01;;;;;;;3.20;1.10;;;12.50;99.90;;;;;;5073910;28;20078;-89
2023/11/02 00:05:57;;;;;;;1.92;0.82;;;12.50;99.90;;;;;;5073962;28;20474;-89
2023/11/02 00:08:32;;;;;;;2.40;0.88;;;12.50;99.90;;;;;;5088541;28;20036;-89
2023/11/02 00:11:02;;;;;;;1.95;1.13;;;12.50;99.90;;;;;;5094182;28;20090;-89
2023/11/02 00:13:28;;;;;;;3.15;1.08;;;12.40;99.90;;;;;;5077976;28;20048;-89
2023/11/02 00:15:54;;;;;;;2.38;1.10;;;12.40;99.90;;;;;;5081880;28;20059;-87
2023/11/02 00:18:21;;;;;;;1.88;0.98;;;12.40;99.90;;;;;;5086934;28;20026;-88
2023/11/02 00:20:54;;;;;;;3.58;1.08;;;12.40;99.90;;;;;;5094440;28;20020;-88
2023/11/02 00:23:39;;;;;;;2.28;0.90;;;12.40;99.90;;;;;;5094256;28;20078;-88
2023/11/02 00:26:05;;;;;;;2.22;0.90;;;12.40;99.90;;;;;;5071179;28;20026;-89
2023/11/02 00:28:31;;;;;;;3.53;1.00;;;12.40;99.90;;;;;;5091949;28;20028;-89
2023/11/02 00:30:58;;;;;;;3.47;0.98;;;12.40;99.90;;;;;;5093784;28;20031;-89
2023/11/02 00:33:24;;;;;;;2.70;1.38;;;12.40;99.90;;;;;;5087126;28;20016;-89
2023/11/02 00:35:53;;;;;;;2.38;1.20;;;12.30;99.90;;;;;;5074786;28;20024;-88
2023/11/02 00:38:27;;;;;;;4.07;1.15;;;12.40;99.90;;;;;;5073564;28;20025;-88
2023/11/02 00:40:54;;;;;;;1.92;0.90;;;12.40;99.90;;;;;;5073107;28;20514;-89
2023/11/02 00:43:21;;;;;;;2.55;1.10;;;12.40;99.90;;;;;;5081015;28;20043;-89
2023/11/02 00:45:48;;;;;;;6.22;1.13;;;12.40;99.90;;;;;;5092193;28;20040;-88
2023/11/02 00:48:29;;;;;;;2.65;0.90;;;12.30;99.90;;;;;;5056561;28;20056;-89
2023/11/02 00:51:13;;;;;;;1.67;0.75;;;12.30;99.90;;;;;;5092617;28;20106;-89
2023/11/02 00:53:45;;;;;;;2.88;1.02;;;12.30;99.90;;;;;;5094392;28;20124;-89
2023/11/02 00:56:11;;;;;;;2.38;0.80;;;12.30;99.90;;;;;;5093547;28;20015;-89
2023/11/02 00:58:46;;;;;;;6.30;1.27;;;12.30;99.90;;;;;;5093547;28;20023;-89
2023/11/02 01:01:13;;;;;;;2.85;1.00;;;12.30;99.90;;;;;;5093669;28;20027;-88
2023/11/02 01:03:40;;;;;;;2.33;1.00;;;12.30;99.90;;;;;;5076792;28;20024;-88
2023/11/02 01:06:19;;;;;;;2.45;0.70;;;12.30;99.90;;;;;;5077012;28;20087;-88
2023/11/02 01:08:57;;;;;;;2.47;0.70;;;12.30;99.90;;;;;;5079803;28;20020;-88
2023/11/02 01:11:34;;;;;;;1.95;0.85;;;12.30;99.90;;;;;;5103850;28;20107;-86
2023/11/02 01:14:27;;;;;;;1.95;0.90;;;12.30;99.90;;;;;;5117314;28;20025;-90
2023/11/02 01:16:53;;;;;;;4.50;1.02;;;12.30;99.90;;;;;;5117682;28;20072;-88
2023/11/02 01:19:57;;;;;;;2.65;1.20;;;12.30;99.90;;;;;;5115835;28;20027;-89
2023/11/02 01:22:28;;;;;;;3.88;0.90;;;12.30;99.90;;;;;;5092506;28;20032;-88
2023/11/02 01:25:03;;;;;;;1.90;0.90;;;12.20;99.90;;;;;;5073836;28;20036;-88
2023/11/02 01:27:29;;;;;;;1.92;0.85;;;12.30;99.90;;;;;;5074197;28;20039;-89
2023/11/02 01:29:54;;;;;;;1.30;0.80;;;12.20;99.90;;;;;;5080127;28;20407;-88
2023/11/02 01:32:23;;;;;;;4.75;1.02;;;12.30;99.90;;;;;;5065140;28;20028;-88
2023/11/02 01:34:49;;;;;;;1.80;0.77;;;12.20;99.90;;;;;;5079274;28;20012;-88
2023/11/02 01:37:18;;;;;;;1.63;0.60;;;12.20;99.90;;;;;;5057249;28;20551;-89
2023/11/02 01:39:44;;;;;;;2.92;0.70;;;12.20;99.90;;;;;;5073630;28;20039;-89
2023/11/02 01:42:14;;;;;;;2.40;1.00;;;12.20;99.90;;;;;;5082954;28;20016;-89
2023/11/02 01:45:03;;;;;;;3.78;1.20;;;12.20;99.90;;;;;;5095059;28;20055;-88
2023/11/02 01:47:32;;;;;;;1.95;0.77;;;12.20;99.90;;;;;;5096971;28;20055;-88
2023/11/02 01:50:28;;;;;;;2.20;0.80;;;12.20;99.90;;;;;;5096767;28;20044;-88
2023/11/02 01:53:06;;;;;;;1.70;0.60;;;12.10;99.90;;;;;;5077655;28;20024;-89
2023/11/02 01:55:53;;;;;;;2.42;1.02;;;12.10;99.90;;;;;;5080242;28;20048;-88
2023/11/02 01:58:55;;;;;;;1.52;0.90;;;12.10;99.90;;;;;;5076442;28;20032;-88
2023/11/02 02:01:53;;;;;;;1.60;0.80;;;12.10;99.90;;;;;;5088100;28;20181;-89
2023/11/02 02:04:25;;;;;;;1.85;0.57;;;12.10;99.90;;;;;;5097541;28;20487;-88
2023/11/02 02:07:09;;;;;;;1.73;0.80;;;12.10;99.90;;;;;;5083339;28;20132;-88
2023/11/02 02:09:37;;;;;;;2.63;0.90;;;12.10;99.90;;;;;;5096501;28;20491;-87
2023/11/02 02:12:18;;;;;;;1.83;0.73;;;12.10;99.90;;;;;;5096403;28;20028;-88
2023/11/02 02:15:04;;;;;;;2.45;0.75;;;12.20;99.90;;;;;;5096239;28;20046;-88
2023/11/02 02:17:48;;;;;;;2.50;1.08;;;12.10;99.90;;;;;;5097433;28;20032;-88
2023/11/02 02:20:25;;;;;;;3.63;0.77;;;12.10;99.90;;;;;;5097086;28;20367;-87
2023/11/02 02:23:11;;;;;;;2.10;0.85;;;12.20;99.90;;;;;;5096371;28;20048;-88
2023/11/02 02:26:14;;;;;;;1.25;0.60;;;12.10;99.90;;;;;;5093441;28;20015;-87
2023/11/02 02:28:49;;;;;;;2.70;0.82;;;12.10;99.90;;;;;;5089930;28;20036;-88
2023/11/02 02:31:49;;;;;;;2.25;0.80;;;12.10;99.90;;;;;;5095041;28;20024;-88
2023/11/02 02:34:39;;;;;;;1.63;0.73;;;12.10;99.90;;;;;;5101979;28;20578;-88
2023/11/02 02:37:23;;;;;;;2.08;0.70;;;12.10;99.90;;;;;;5089668;28;20028;-89
2023/11/02 02:39:54;;;;;;;2.78;0.85;;;12.10;99.90;;;;;;5090199;28;20031;-88
2023/11/02 02:42:21;;;;;;;3.25;0.80;;;12.10;99.90;;;;;;5089764;28;20049;-89
2023/11/02 02:44:51;;;;;;;3.53;1.13;;;12.10;99.90;;;;;;5082777;28;20024;-88
2023/11/02 02:47:21;;;;;;;1.75;0.75;;;12.10;99.90;;;;;;5100903;28;20040;-87
2023/11/02 02:49:51;;;;;;;1.95;0.70;;;12.10;99.90;;;;;;5109319;28;20009;-88
2023/11/02 02:52:22;;;;;;;1.52;0.70;;;12.10;99.90;;;;;;5100517;28;20026;-88
2023/11/02 02:54:52;;;;;;;2.25;0.80;;;12.20;99.90;;;;;;5119985;28;20092;-90
2023/11/02 02:57:21;;;;;;;2.53;0.70;;;12.20;99.90;;;;;;5104479;28;20005;-87
2023/11/02 02:59:53;;;;;;;2.58;0.77;;;12.20;99.90;;;;;;5100147;28;20033;-87
2023/11/02 03:02:24;;;;;;;1.83;0.80;;;12.20;99.90;;;;;;5105918;28;20027;-88
2023/11/02 03:04:54;;;;;;;4.00;1.00;;;12.20;99.90;;;;;;5096911;28;20112;-88
2023/11/02 03:07:21;;;;;;;4.18;0.80;;;12.10;99.90;;;;;;5085562;28;20074;-88
2023/11/02 03:09:54;;;;;;;2.42;0.57;;;12.20;99.90;;;;;;5086123;28;20028;-87
2023/11/02 03:12:26;;;;;;;1.67;0.90;;;12.20;99.90;;;;;;5089074;28;20017;-88
2023/11/02 03:14:59;;;;;;;1.55;0.70;;;12.30;99.90;;;;;;5084188;28;20028;-88
2023/11/02 03:17:57;;;;;;;1.88;0.80;;;12.20;99.90;;;;;;5095073;28;20024;-87
2023/11/02 03:20:23;;;;;;;2.92;1.00;;;12.30;99.90;;;;;;5094913;28;20479;-87
2023/11/02 03:22:49;;;;;;;2.08;1.05;;;12.30;99.90;;;;;;5067877;28;20111;-87
2023/11/02 03:25:47;;;;;;;1.98;0.60;;;12.30;99.90;;;;;;5082543;28;20056;-87
2023/11/02 03:28:47;;;;;;;3.55;1.08;;;12.30;99.90;;;;;;5094891;28;20016;-88
2023/11/02 03:31:36;;;;;;;2.42;1.10;;;12.20;99.90;;;;;;5095940;28;20024;-88
2023/11/02 03:34:32;;;;;;;2.15;0.60;;;12.20;99.90;;;;;;5095700;28;20035;-89
2023/11/02 03:37:11;;;;;;;3.40;0.80;;;12.20;99.90;;;;;;5095881;28;20028;-88
2023/11/02 03:39:46;;;;;;;3.33;0.90;;;12.20;99.90;;;;;;5085212;28;20100;-87
2023/11/02 03:42:30;;;;;;;2.25;0.70;;;12.20;99.90;;;;;;5074231;28;20483;-88
2023/11/02 03:45:16;;;;;;;3.13;0.90;;;12.20;99.90;;;;;;5075498;28;20050;-88
2023/11/02 03:48:01;;;;;;;1.50;0.60;;;12.20;99.90;;;;;;5079167;28;20052;-88
2023/11/02 03:50:29;;;;;;;1.88;0.80;;;12.20;99.90;;;;;;5077335;28;20081;-87
2023/11/02 03:53:44;;;;;;;2.80;0.80;;;12.20;99.90;;;;;;5092064;28;20034;-88
2023/11/02 03:56:40;;;;;;;3.35;0.60;;;12.30;99.90;;;;;;5073116;28;20021;-89
2023/11/02 03:59:42;;;;;;;1.48;0.63;;;12.30;99.90;;;;;;5074228;28;20024;-88
2023/11/02 04:02:17;;;;;;;5.13;0.90;;;12.30;99.90;;;;;;5080411;28;20030;-88
2023/11/02 04:05:00;;;;;;;4.57;0.98;;;12.40;99.90;;;;;;5091338;28;20119;-89
2023/11/02 04:07:44;;;;;;;3.25;1.05;;;12.40;99.90;;;;;;5093181;28;20020;-87
2023/11/02 04:10:14;;;;;;;2.47;0.90;;;12.40;99.90;;;;;;5094780;28;20078;-88
2023/11/02 04:12:43;;;;;;;2.65;0.80;;;12.40;99.90;;;;;;5074924;28;20468;-88
2023/11/02 04:15:11;;;;;;;2.33;0.80;;;12.40;99.90;;;;;;5074275;28;20123;-89
2023/11/02 04:17:37;;;;;;;3.25;0.70;;;12.40;99.90;;;;;;5057795;28;20058;-88
2023/11/02 04:20:04;;;;;;;2.45;0.68;;;12.40;99.90;;;;;;5091973;28;20024;-89
2023/11/02 04:22:30;;;;;;;2.22;0.80;;;12.40;99.90;;;;;;5078000;28;20112;-88
2023/11/02 04:24:55;;;;;;;4.38;1.05;;;12.40;99.90;;;;;;5110352;28;20024;-86
2023/11/02 04:27:21;;;;;;;1.67;0.90;;;12.50;99.90;;;;;;5105168;28;20025;-89
2023/11/02 04:29:47;;;;;;;1.85;0.70;;;12.50;99.90;;;;;;5098058;28;20012;-89
2023/11/02 04:32:13;;;;;;;3.03;0.90;;;12.50;99.90;;;;;;5097682;28;20005;-89
2023/11/02 04:34:39;;;;;;;3.50;0.88;;;12.50;99.90;;;;;;5081719;28;20539;-87
2023/11/02 04:37:15;;;;;;;2.05;0.93;;;12.40;99.90;;;;;;5060743;28;20036;-88
2023/11/02 04:39:45;;;;;;;1.98;0.80;;;12.40;99.90;;;;;;5073605;28;20017;-88
2023/11/02 04:42:11;;;;;;;2.67;1.00;;;12.40;99.90;;;;;;5091475;28;20025;-88
2023/11/02 04:44:37;;;;;;;2.50;1.13;;;12.40;99.90;;;;;;5064906;28;20034;-88
2023/11/02 04:47:03;;;;;;;1.95;0.70;;;12.40;99.90;;;;;;5093286;28;20113;-87
2023/11/02 04:49:31;;;;;;;3.40;0.93;;;12.40;99.90;;;;;;5072952;28;20020;-87
2023/11/02 04:52:02;;;;;;;3.28;0.80;;;12.40;99.90;;;;;;5057070;28;20055;-89
2023/11/02 04:54:28;;;;;;;2.25;0.95;;;12.40;99.90;;;;;;5088728;28;20020;-88
2023/11/02 04:56:54;;;;;;;3.90;1.00;;;12.40;99.90;;;;;;5092833;28;20024;-87
2023/11/02 04:59:20;;;;;;;2.00;1.00;;;12.40;99.90;;;;;;5092689;28;20058;-88
2023/11/02 05:01:47;;;;;;;1.73;0.60;;;12.50;99.90;;;;;;5092108;28;20102;-89
2023/11/02 05:04:13;;;;;;;1.88;0.90;;;12.50;99.90;;;;;;5093223;28;20016;-89
2023/11/02 05:06:42;;;;;;;3.47;0.88;;;12.50;99.90;;;;;;5085767;28;20021;-88
2023/11/02 05:09:08;;;;;;;2.25;0.80;;;12.50;99.90;;;;;;5056737;28;20111;-89
2023/11/02 05:11:33;;;;;;;1.95;0.70;;;12.50;99.90;;;;;;5056250;28;20115;-88
2023/11/02 05:13:59;;;;;;;3.40;0.90;;;12.50;99.90;;;;;;5059745;28;20487;-89
2023/11/02 05:16:25;;;;;;;3.30;0.77;;;12.50;99.90;;;;;;5089917;28;20027;-87
2023/11/02 05:19:04;;;;;;;2.83;0.80;;;12.50;99.90;;;;;;5074960;28;20024;-88
2023/11/02 05:21:29;;;;;;;4.13;1.00;;;12.50;99.90;;;;;;5077086;28;20078;-88
2023/11/02 05:23:56;;;;;;;2.45;0.88;;;12.50;99.90;;;;;;5093775;28;20400;-87
2023/11/02 05:26:22;;;;;;;1.52;0.93;;;12.50;99.90;;;;;;5093717;28;20497;-87
2023/11/02 05:28:47;;;;;;;2.78;0.93;;;12.50;99.90;;;;;;5076774;28;20036;-87
2023/11/02 05:31:13;;;;;;;3.78;1.20;;;12.50;99.90;;;;;;5060527;28;20396;-88
2023/11/02 05:33:39;;;;;;;4.00;0.85;;;12.50;99.90;;;;;;5064290;28;20024;-90
2023/11/02 05:36:07;;;;;;;2.55;1.33;;;12.50;99.90;;;;;;5063529;28;20467;-90
2023/11/02 05:38:33;;;;;;;2.00;0.70;;;12.50;99.90;;;;;;5096698;28;20063;-90
2023/11/02 05:40:58;;;;;;;1.95;0.90;;;12.50;99.90;;;;;;5097711;28;20052;-89
2023/11/02 05:43:24;;;;;;;2.67;0.80;;;12.50;99.90;;;;;;5097633;28;20020;-88
2023/11/02 05:45:50;;;;;;;2.83;0.82;;;12.50;99.90;;;;;;5085933;28;20119;-88
2023/11/02 05:48:15;;;;;;;2.38;0.82;;;12.50;99.90;;;;;;5091653;28;20049;-87
2023/11/02 05:50:41;;;;;;;1.25;0.73;;;12.50;99.90;;;;;;5073370;28;20123;-87
2023/11/02 05:53:07;;;;;;;1.85;0.85;;;12.60;99.90;;;;;;5090093;28;20024;-87
2023/11/02 05:55:33;;;;;;;3.22;0.77;;;12.60;99.90;;;;;;5081008;28;20035;-87
2023/11/02 05:58:01;;;;;;;1.35;0.57;;;12.60;99.90;;;;;;5081347;28;20067;-88
2023/11/02 06:00:29;;;;;;;1.08;0.60;;;12.60;99.90;;;;;;5092334;28;20050;-89
2023/11/02 06:02:55;;;;;;;2.40;0.90;;;12.60;99.90;;;;;;5096189;28;20040;-90
2023/11/02 06:05:26;;;;;;;1.52;0.73;;;12.60;99.90;;;;;;5098978;28;20023;-90
2023/11/02 06:07:52;;;;;;;1.40;0.80;;;12.60;99.90;;;;;;5112180;28;20058;-88
2023/11/02 06:10:18;;;;;;;1.88;0.90;;;12.60;99.90;;;;;;5097837;28;20036;-87
2023/11/02 06:12:44;;;;;;;1.38;1.00;;;12.70;99.90;;;;;;5078231;28;20491;-87
2023/11/02 06:15:10;;;;;;;2.33;0.80;;;12.60;99.90;;;;;;5086956;28;20107;-87
2023/11/02 06:17:36;;;;;;;2.85;0.85;;;12.60;99.90;;;;;;5075232;28;20032;-86
2023/11/02 06:20:06;;;;;;;1.55;0.95;;;12.60;99.90;;;;;;5060966;28;20040;-88
2023/11/02 06:22:32;;;;;;;2.50;0.80;;;12.60;99.90;;;;;;5088196;28;20016;-87
2023/11/02 06:24:57;;;;;;;2.17;0.82;;;12.60;99.90;;;;;;5080476;28;20086;-87
2023/11/02 06:27:23;;;;;;;3.13;0.80;;;12.50;99.90;;;;;;5089580;28;20031;-87
2023/11/02 06:29:49;;;;;;;1.42;0.85;;;12.60;99.90;;;;;;5088411;28;20037;-86
2023/11/02 06:32:15;;;;;;;1.75;0.80;;;12.60;99.90;;;;;;5082306;28;20027;-87
2023/11/02 06:34:41;;;;;;;1.17;0.70;;;12.60;99.90;;;;;;5076101;28;20429;-87
2023/11/02 06:37:08;;;;;;;4.10;0.70;;;12.60;99.90;;;;;;5078226;28;20024;-88
2023/11/02 06:39:35;;;;;;;1.55;0.57;;;12.60;99.90;;;;;;5095494;28;20073;-89
2023/11/02 06:42:01;;;;;;;3.45;1.10;;;12.60;99.90;;;;;;5077100;28;20042;-88
2023/11/02 06:44:28;;;;;;;3.40;0.88;;;12.60;99.90;;;;;;5086054;28;20028;-87
2023/11/02 06:46:54;;;;;;;2.08;0.70;;;12.60;99.90;;;;;;5094054;28;20048;-87
2023/11/02 06:49:20;;;;;;;2.70;0.60;;;12.60;99.90;;;;;;5095553;28;20380;-88
2023/11/02 06:51:46;;;;;;;1.75;0.80;;;12.60;99.90;;;;;;5095403;28;20023;-88
2023/11/02 06:54:11;;;;;;;1.45;0.65;;;12.60;99.90;;;;;;5094764;28;20402;-87
2023/11/02 06:56:37;;;;;;;0.98;0.45;;;12.60;99.90;;;;;;5095399;28;20024;-87
2023/11/02 06:59:03;;;;;;;2.47;0.98;;;12.60;99.90;;;;;;5094828;28;20024;-88
2023/11/02 07:01:28;;;;;;;1.48;0.75;;;12.60;99.90;;;;;;5095573;28;20107;-88
2023/11/02 07:03:58;;;;;;;2.25;0.57;;;12.60;99.90;;;;;;5095993;28;20016;-88
2023/11/02 07:06:26;;;;;;;2.72;0.50;;;12.60;99.90;;;;;;5093295;28;20038;-88
2023/11/02 07:08:51;;;;;;;2.70;0.60;;;12.60;99.90;;;;;;5084077;28;20053;-86
2023/11/02 07:11:17;;;;;;;0.93;0.60;;;12.60;99.90;;;;;;5074592;28;20021;-87
2023/11/02 07:13:43;;;;;;;0.95;0.40;;;12.60;99.90;;;;;;5091737;28;20017;-89
2023/11/02 07:16:11;;;;;;;1.05;0.70;;;12.60;99.90;;;;;;5094697;28;20119;-88
2023/11/02 07:18:44;;;;;;;1.10;0.60;;;12.50;99.90;;;;;;5076803;28;20024;-87
2023/11/02 07:21:12;;;;;;;1.83;0.65;;;12.60;99.90;;;;;;5092605;28;20032;-87
2023/11/02 07:23:39;;;;;;;1.75;0.80;;;12.50;99.90;;;;;;5066766;28;20024;-87
2023/11/02 07:26:08;;;;;;;2.30;0.75;;;12.50;99.90;;;;;;5075677;28;20020;-87
2023/11/02 07:28:35;;;;;;;2.70;0.68;;;12.50;99.90;;;;;;5078710;28;20132;-87
2023/11/02 07:31:04;;;;;;;1.70;0.68;;;12.50;99.90;;;;;;5096214;28;20460;-86
2023/11/02 07:33:31;;;;;;;1.13;0.50;;;12.50;99.90;;;;;;5078951;28;20036;-87
2023/11/02 07:35:57;;;;;;;2.13;0.70;;;12.50;99.90;;;;;;5061965;28;20024;-88
2023/11/02 07:38:22;;;;;;;2.28;0.70;;;12.40;99.90;;;;;;5090019;28;20042;-87
2023/11/02 07:40:48;;;;;;;1.33;0.60;;;12.50;99.90;;;;;;5106022;28;20054;-90
2023/11/02 07:43:14;;;;;;;2.05;0.65;;;12.50;99.90;;;;;;5087993;28;20002;-87
2023/11/02 07:45:43;;;;;;;1.80;0.60;;;12.50;99.90;;;;;;5118306;28;20034;-86
2023/11/02 07:48:08;;;;;;;2.20;0.40;;;12.50;99.90;;;;;;5108189;28;20048;-87
2023/11/02 07:50:34;;;;;;;2.03;0.45;;;12.50;99.90;;;;;;5096018;28;20020;-86
2023/11/02 07:53:02;;;;;;;2.33;0.70;;;12.50;99.90;;;;;;5095779;28;20027;-86
2023/11/02 07:55:28;;;;;;;1.00;0.63;;;12.50;99.90;;;;;;5094185;28;20107;-87
2023/11/02 07:57:57;;;;;;;1.77;0.60;;;12.50;99.90;;;;;;5094442;28;20078;-87
2023/11/02 08:00:25;;;;;;;1.75;0.40;;;12.60;99.90;;;;;;5093033;28;20020;-86
2023/11/02 08:02:53;;;;;;;1.40;0.50;;;12.60;99.90;;;;;;5058288;28;20033;-87
2023/11/02 08:05:19;;;;;;;2.08;0.65;;;12.60;99.90;;;;;;5074773;28;20024;-87
2023/11/02 08:07:48;;;;;;;1.52;0.57;;;12.60;99.90;;;;;;5094251;28;20032;-87
2023/11/02 08:10:14;;;;;;;2.65;0.65;;;12.70;99.90;;;;;;5093593;28;20016;-87
2023/11/02 08:12:42;;;;;;;1.50;0.82;;;12.70;99.90;;;;;;5077076;28;20024;-86
2023/11/02 08:15:08;;;;;;;0.88;0.50;;;12.80;99.90;;;;;;5074045;28;20106;-89
2023/11/02 08:17:34;;;;;;;1.52;0.63;;;12.80;99.90;;;;;;5075325;28;20031;-87
2023/11/02 08:20:02;;;;;;;2.40;0.47;;;12.80;99.90;;;;;;5093955;28;20028;-87
2023/11/02 08:22:31;;;;;;;1.85;0.60;;;12.90;99.90;;;;;;5093828;28;20118;-87
2023/11/02 08:24:56;;;;;;;3.53;0.70;;;13.00;99.90;;;;;;5093551;28;20052;-87
2023/11/02 08:27:22;;;;;;;1.10;0.60;;;13.00;99.90;;;;;;5093679;28;20487;-86
2023/11/02 08:29:48;;;;;;;1.73;0.50;;;13.10;99.90;;;;;;5086897;28;20025;-87
2023/11/02 08:32:14;;;;;;;2.30;0.60;;;13.20;99.90;;;;;;5088039;28;20020;-87
2023/11/02 08:34:43;;;;;;;1.35;0.80;;;13.30;99.90;;;;;;5090652;28;20024;-88
2023/11/02 08:37:14;;;;;;;1.52;0.68;;;13.30;99.90;;;;;;5093172;28;20107;-88
2023/11/02 08:39:40;;;;;;;1.50;0.82;;;13.40;99.90;;;;;;5092472;28;20478;-87
2023/11/02 08:42:11;;;;;;;1.50;0.63;;;13.50;99.90;;;;;;5093044;28;20020;-87
2023/11/02 08:44:40;;;;;;;1.05;0.60;;;13.50;99.90;;;;;;5093389;28;20029;-87
2023/11/02 08:47:09;;;;;;;2.17;0.70;;;13.50;99.90;;;;;;5092590;28;20047;-87
2023/11/02 08:49:38;;;;;;;1.63;0.50;;;13.60;99.90;;;;;;5075619;28;20091;-87
2023/11/02 08:52:05;;;;;;;2.53;0.50;;;13.60;99.90;;;;;;5073067;28;20448;-88
2023/11/02 08:54:30;;;;;;;1.67;0.75;;;13.60;99.90;;;;;;5072774;28;20046;-87
2023/11/02 08:57:01;;;;;;;1.88;0.73;;;13.60;99.90;;;;;;5074312;28;20028;-89
2023/11/02 08:59:32;;;;;;;1.33;0.47;;;13.70;99.90;;;;;;5075795;28;20460;-86
2023/11/02 09:01:58;;;;;;;2.30;0.90;;;13.70;99.90;;;;;;5093434;28;20027;-88
2023/11/02 09:04:24;;;;;;;0.57;0.50;;;13.80;99.90;;;;;;5080969;28;20448;-87
2023/11/02 09:06:50;;;;;;;1.65;0.60;;;13.80;99.90;;;;;;5077823;28;20032;-86
2023/11/02 09:09:18;;;;;;;1.52;0.88;;;13.80;99.90;;;;;;5061615;28;20036;-86
2023/11/02 09:11:44;;;;;;;1.58;0.73;;;13.80;99.90;;;;;;5063992;28;20031;-87
2023/11/02 09:14:12;;;;;;;2.10;0.60;;;13.80;99.90;;;;;;5093595;28;20028;-88
2023/11/02 09:16:38;;;;;;;0.98;0.50;;;13.90;99.90;;;;;;5102834;28;20158;-89
2023/11/02 09:19:04;;;;;;;2.22;0.82;;;13.90;99.90;;;;;;5110316;28;20016;-92
2023/11/02 09:21:30;;;;;;;2.17;0.82;;;13.90;99.90;;;;;;5117716;28;20028;-90
2023/11/02 09:23:58;;;;;;;2.95;1.05;;;13.90;99.90;;;;;;5110410;28;20027;-86
2023/11/02 09:26:24;;;;;;;1.73;0.63;;;13.90;99.90;;;;;;5077183;28;20070;-87
2023/11/02 09:28:50;;;;;;;3.28;0.90;;;13.90;99.90;;;;;;5074129;28;20028;-88
2023/11/02 09:31:17;;;;;;;2.58;0.63;;;14.00;99.90;;;;;;5092047;28;20024;-88
2023/11/02 09:33:43;;;;;;;1.58;0.70;;;14.00;99.90;;;;;;5093633;28;20421;-87
2023/11/02 09:36:09;;;;;;;1.70;0.47;;;14.00;99.90;;;;;;5092722;28;20085;-89
2023/11/02 09:38:37;;;;;;;3.45;0.77;;;14.00;99.90;;;;;;5083281;28;20029;-88
2023/11/02 09:41:03;;;;;;;2.95;0.82;;;14.00;99.90;;;;;;5076914;28;20023;-88
2023/11/02 09:43:32;;;;;;;1.25;0.65;;;14.00;99.90;;;;;;5072923;28;20035;-88
2023/11/02 09:45:58;;;;;;;5.93;0.90;;;14.10;99.90;;;;;;5072927;28;20047;-88
2023/11/02 09:48:27;;;;;;;3.70;0.73;;;14.10;99.90;;;;;;5073629;28;20098;-87
2023/11/02 09:50:57;;;;;;;3.05;0.90;;;14.10;99.90;;;;;;5072780;28;20054;-88
2023/11/02 09:53:23;;;;;;;2.40;0.70;;;14.20;99.90;;;;;;5089345;28;20032;-88
2023/11/02 09:55:50;;;;;;;4.43;0.73;;;14.20;99.90;;;;;;5092470;28;20086;-87
2023/11/02 09:58:17;;;;;;;1.30;0.60;;;14.20;99.90;;;;;;5093951;28;20028;-87
2023/11/02 10:00:47;;;;;;;3.55;0.90;;;14.30;99.90;;;;;;5078917;28;20468;-89
2023/11/02 10:03:16;;;;;;;3.47;0.82;;;14.30;99.90;;;;;;5089171;28;20380;-89
2023/11/02 10:05:47;;;;;;;5.03;1.00;;;14.30;99.90;;;;;;5074149;28;20031;-87
2023/11/02 10:08:12;;;;;;;3.55;0.90;;;14.40;99.90;;;;;;5093837;28;20036;-90
2023/11/02 10:10:41;;;;;;;3.72;0.95;;;14.50;99.90;;;;;;5079723;28;20031;-88
2023/11/02 10:13:07;;;;;;;3.05;1.00;;;14.50;99.90;;;;;;5096385;28;20024;-89
2023/11/02 10:15:33;;;;;;;4.22;1.38;;;14.60;99.90;;;;;;5094911;28;20024;-88
2023/11/02 10:17:59;;;;;;;3.70;1.00;;;14.60;99.90;;;;;;5093818;28;20119;-89
2023/11/02 10:20:26;;;;;;;4.95;0.80;;;14.60;99.90;;;;;;5064945;28;20075;-88
2023/11/02 10:23:00;;;;;;;4.05;1.02;;;14.70;99.90;;;;;;5075875;28;20470;-88
2023/11/02 10:25:29;;;;;;;4.93;1.15;;;14.80;99.90;;;;;;5075486;28;20123;-90
2023/11/02 10:28:00;;;;;;;4.18;1.05;;;14.80;99.90;;;;;;5075676;28;20175;-88
2023/11/02 10:30:26;;;;;;;2.47;0.77;;;14.90;99.90;;;;;;5075706;28;20017;-88
2023/11/02 10:32:54;;;;;;;1.35;0.50;;;14.90;99.90;;;;;;5087130;28;20438;-88
2023/11/02 10:35:20;;;;;;;3.35;1.08;;;14.90;99.80;;;;;;5081568;28;20025;-89
2023/11/02 10:37:53;;;;;;;2.45;0.90;;;15.00;99.60;;;;;;5082498;28;20029;-87
2023/11/02 10:40:19;;;;;;;5.25;1.10;;;14.90;99.50;;;;;;5092006;28;20027;-87
2023/11/02 10:42:51;;;;;;;3.05;1.08;;;15.00;99.30;;;;;;5095804;28;20024;-88
2023/11/02 10:45:19;;;;;;;4.07;1.20;;;15.00;99.20;;;;;;5096084;28;20511;-89
2023/11/02 10:47:51;;;;;;;3.55;0.98;;;15.00;98.90;;;;;;5089476;28;20044;-88
2023/11/02 10:50:21;;;;;;;4.05;1.10;;;15.00;98.70;;;;;;5088114;28;20012;-89
2023/11/02 10:52:56;;;;;;;2.75;1.00;;;15.00;98.70;;;;;;5067857;28;20024;-88
2023/11/02 10:55:27;;;;;;;2.67;0.80;;;15.00;98.80;;;;;;5104229;28;20020;-89
2023/11/02 10:57:53;;;;;;;2.55;1.02;;;15.00;98.50;;;;;;5093260;28;20044;-88
2023/11/02 11:00:22;;;;;;;2.70;0.98;;;15.00;98.20;;;;;;5117833;28;20035;-91
2023/11/02 11:02:50;;;;;;;4.13;1.27;;;15.10;98.30;;;;;;5102216;28;20077;-88
2023/11/02 11:05:17;;;;;;;4.07;1.10;;;15.10;98.00;;;;;;5093025;28;20532;-88
2023/11/02 11:07:45;;;;;;;5.57;1.00;;;15.10;97.90;;;;;;5079302;28;20028;-88
2023/11/02 11:10:17;;;;;;;5.00;1.45;;;15.10;97.50;;;;;;5095207;28;20051;-88
2023/11/02 11:12:44;;;;;;;3.58;1.30;;;15.10;97.50;;;;;;5096069;28;20039;-87
2023/11/02 11:15:12;;;;;;;4.45;1.20;;;15.10;97.40;;;;;;5095985;28;20120;-87
2023/11/02 11:17:43;;;;;;;4.30;1.10;;;15.10;97.40;;;;;;5088052;28;20365;-88
2023/11/02 11:20:15;;;;;;;5.68;1.58;;;15.20;97.40;;;;;;5085667;28;20024;-88
2023/11/02 11:22:43;;;;;;;4.28;1.33;;;15.20;97.20;;;;;;5095161;28;20023;-88
2023/11/02 11:25:14;;;;;;;4.20;1.20;;;15.20;97.10;;;;;;5095191;28;20016;-88
2023/11/02 11:27:39;;;;;;;5.75;1.38;;;15.20;97.20;;;;;;5094808;28;20063;-88
2023/11/02 11:30:31;;;;;;;4.50;1.23;;;15.20;97.10;;;;;;5094314;28;20020;-88
2023/11/02 11:32:58;;;;;;;4.38;1.23;;;15.30;97.10;;;;;;5094400;28;20020;-88
2023/11/02 11:35:25;;;;;;;6.13;1.48;;;15.40;96.90;;;;;;5094437;28;20024;-89
2023/11/02 11:38:03;;;;;;;3.40;1.02;;;15.40;96.90;;;;;;5085356;28;20043;-88
2023/11/02 11:40:34;;;;;;;3.38;1.13;;;15.40;96.90;;;;;;5094926;28;20090;-88
2023/11/02 11:43:05;;;;;;;3.72;1.50;;;15.50;96.90;;;;;;5096189;28;20095;-89
2023/11/02 11:45:32;;;;;;;;;;;15.50;96.70;;;;;;5078023;28;20065;-88
2023/11/02 11:47:58;;;;;;;4.40;1.13;;;15.60;96.50;;;;;;5095937;28;20018;-89
2023/11/02 11:50:39;;;;;;;3.50;1.00;;;15.60;96.40;;;;;;5094112;28;20028;-89
2023/11/02 11:53:15;;;;;;;;;;;15.60;96.00;;;;;;5070835;28;20074;-90
2023/11/02 11:55:42;;;;;;;3.95;1.10;;;15.60;95.60;;;;;;5094321;28;19953;-89
2023/11/02 11:58:08;;;;;;;3.95;1.08;;;15.60;95.70;;;;;;5085287;28;20024;-87
2023/11/02 12:00:54;;;;;;;3.95;1.20;;;15.60;95.80;;;;;;5073920;28;20456;-90
2023/11/02 12:03:35;;;;;;;6.25;1.00;;;15.60;95.70;;;;;;5092169;28;20024;-90
2023/11/02 12:06:02;;;;;;;3.30;1.15;;;15.60;95.70;;;;;;5094365;28;20059;-88
2023/11/02 12:08:28;;;;;;;2.65;1.17;;;15.60;95.70;;;;;;5076044;28;20538;-88
2023/11/02 12:10:57;;;;;;;8.00;1.40;;;15.60;96.10;;;;;;5056952;28;20044;-89
2023/11/02 12:13:25;;;;;;;6.30;1.20;;;15.50;96.40;;;;;;5061183;28;20028;-88
2023/11/02 12:15:58;;;;;;;6.18;1.40;;;15.40;96.40;;;;;;5074398;28;20024;-87
2023/11/02 12:18:30;;;;;;;9.73;1.33;;;15.40;96.10;;;;;;5092784;28;20539;-88
2023/11/02 12:21:19;;;;;;;6.13;1.50;;;15.30;95.80;;;;;;5076943;28;20035;-88
2023/11/02 12:23:46;;;;;;;5.65;1.23;;;15.20;95.70;;;;;;5093573;28;20504;-88
2023/11/02 12:26:18;;;;;;;5.75;1.30;;;15.20;95.70;;;;;;5093782;28;20073;-88
2023/11/02 12:29:08;;;;;;;4.55;1.13;;;15.20;95.90;;;;;;5079743;28;20040;-87
2023/11/02 12:31:36;;;;;;;4.63;1.35;;;15.20;96.00;;;;;;5086405;28;20489;-88
2023/11/02 12:34:04;;;;;;;3.55;1.20;;;15.20;96.00;;;;;;5080384;28;20401;-88
2023/11/02 12:36:30;;;;;;;4.43;1.13;;;15.20;95.90;;;;;;5095064;28;20020;-88
2023/11/02 12:38:56;;;;;;;3.78;1.08;;;15.20;96.00;;;;;;5091998;28;20023;-88
2023/11/02 12:41:27;;;;;;;4.03;0.90;;;15.30;96.00;;;;;;5087648;28;20035;-87
2023/11/02 12:44:04;;;;;;;;;;;15.30;95.90;;;;;;5106474;28;20054;-89
2023/11/02 12:46:32;;;;;;;5.90;1.38;;;15.30;95.80;;;;;;5124552;28;19931;-93
2023/11/02 12:49:22;;;;;;;2.80;1.00;;;15.30;95.80;;;;;;5118028;28;20100;-89
2023/11/02 12:52:01;;;;;;;4.80;1.25;;;15.30;95.70;;;;;;5108204;28;20032;-87
2023/11/02 12:54:31;;;;;;;8.20;1.38;;;15.30;95.50;;;;;;5086300;28;20024;-89
2023/11/02 12:57:09;;;;;;;5.07;1.13;;;15.30;95.20;;;;;;5091357;28;20028;-87
2023/11/02 12:59:40;;;;;;;3.50;1.08;;;15.30;95.20;;;;;;5075744;28;20023;-88
2023/11/02 13:02:06;;;;;;;;;;;15.30;95.30;;;;;;5079897;28;20032;-90
2023/11/02 13:04:54;;;;;;;3.53;1.00;;;15.30;95.30;;;;;;5088705;28;19904;-92
2023/11/02 13:07:20;;;;;;;4.28;1.23;;;15.30;95.40;;;;;;5083747;28;20020;-88